Time;durP1;ratioP1;P1;durP2;ratioP2;P2;SDS_P1;SDS_P2;PMS_P1;PMS_P2;Temp;Humidity;BMP_temperature;BMP_pressure;BME280_temperature;BME280_humidity;BME280_pressure;Samples;Min_cycle;Max_cycle;Signal;HPM_P1;HPM_P2
2023/03/20 00:00:48;;;;;;;0.10;0.10;;;;;;;10.75;66.78;102039.78;5089294;28;20033;-84
2023/03/20 00:03:15;;;;;;;0.00;0.00;;;;;;;10.73;66.41;102040.69;5088758;28;20060;-83
2023/03/20 00:05:41;;;;;;;0.30;0.30;;;;;;;10.66;66.67;102029.22;5086440;28;20039;-84
2023/03/20 00:08:08;;;;;;;0.10;0.10;;;;;;;10.63;66.56;102023.91;5080883;28;20032;-85
2023/03/20 00:10:38;;;;;;;0.75;0.68;;;;;;;10.59;66.67;102023.06;5091640;28;20020;-85
2023/03/20 00:13:06;;;;;;;0.10;0.10;;;;;;;10.50;66.73;102010.69;5091903;28;20503;-84
2023/03/20 00:15:38;;;;;;;0.15;0.15;;;;;;;10.48;66.79;102009.81;5093922;28;20097;-86
2023/03/20 00:18:15;;;;;;;0.20;0.20;;;;;;;10.43;67.16;102014.22;5086614;28;20054;-84
2023/03/20 00:20:41;;;;;;;0.10;0.10;;;;;;;10.34;67.09;102030.97;5088422;28;20029;-85
2023/03/20 00:23:07;;;;;;;0.10;0.10;;;;;;;10.31;67.02;102035.41;5088001;28;20020;-84
2023/03/20 00:25:35;;;;;;;0.10;0.10;;;;;;;10.23;67.20;102042.44;5091540;28;20038;-86
2023/03/20 00:28:29;;;;;;;0.10;0.10;;;;;;;10.26;67.28;102051.28;5090812;28;20031;-85
2023/03/20 00:30:56;;;;;;;0.10;0.10;;;;;;;10.15;67.16;102058.34;5090502;28;20031;-86
2023/03/20 00:33:22;;;;;;;0.10;0.10;;;;;;;10.11;67.40;102065.38;5095756;28;20062;-86
2023/03/20 00:35:53;;;;;;;0.20;0.20;;;;;;;10.10;67.39;102076.84;5097378;28;20074;-86
2023/03/20 00:38:19;;;;;;;1.83;1.75;;;;;;;10.07;67.29;102070.66;5087131;28;20029;-86
2023/03/20 00:40:45;;;;;;;0.17;0.17;;;;;;;10.07;67.29;102070.66;5092825;28;20059;-86
2023/03/20 00:43:14;;;;;;;0.20;0.20;;;;;;;10.11;67.27;102069.81;5100407;28;20116;-85
2023/03/20 00:45:43;;;;;;;0.17;0.17;;;;;;;10.03;67.39;102056.53;5095073;28;20016;-87
2023/03/20 00:48:13;;;;;;;0.10;0.10;;;;;;;10.11;67.31;102061.88;5091562;28;20084;-87
2023/03/20 00:50:39;;;;;;;0.40;0.40;;;;;;;10.04;67.33;102047.72;5089562;28;20137;-85
2023/03/20 00:53:08;;;;;;;0.10;0.10;;;;;;;10.03;67.21;102053.88;5086843;28;20095;-86
2023/03/20 00:55:34;;;;;;;1.08;0.47;;;;;;;10.01;67.11;102066.25;5085880;28;20032;-87
2023/03/20 00:58:02;;;;;;;0.30;0.30;;;;;;;9.95;67.17;102063.59;5089770;28;20036;-87
2023/03/20 01:00:44;;;;;;;0.20;0.20;;;;;;;10.01;67.05;102050.38;5085005;28;20040;-87
2023/03/20 01:03:15;;;;;;;0.35;0.35;;;;;;;9.95;67.14;102042.41;5077499;28;20445;-86
2023/03/20 01:05:43;;;;;;;0.10;0.10;;;;;;;9.90;67.48;102037.09;5076019;28;20028;-86
2023/03/20 01:08:13;;;;;;;0.10;0.10;;;;;;;9.90;67.38;102034.47;5082078;28;20028;-86
2023/03/20 01:10:41;;;;;;;0.20;0.20;;;;;;;9.84;67.55;102031.78;5075806;28;20088;-86
2023/03/20 01:16:20;;;;;;;1.27;0.95;;;;;;;9.87;67.32;102042.41;4995308;27;4302771;-86
2023/03/20 01:18:46;;;;;;;0.30;0.30;;;;;;;9.79;67.49;102038.84;5131236;27;20027;-85
2023/03/20 01:21:12;;;;;;;0.10;0.10;;;;;;;9.76;67.36;102034.44;5130073;28;20024;-85
2023/03/20 01:23:39;;;;;;;0.10;0.10;;;;;;;9.75;67.33;102034.44;5126425;27;20056;-86
2023/03/20 01:26:21;;;;;;;0.10;0.10;;;;;;;9.75;67.65;102032.66;5129769;28;20040;-86
2023/03/20 01:28:48;;;;;;;1.45;1.35;;;;;;;9.67;67.66;102034.38;5124688;27;20039;-86
2023/03/20 01:31:18;;;;;;;0.10;0.10;;;;;;;9.68;67.70;102049.41;5133076;27;20027;-85
2023/03/20 01:33:45;;;;;;;0.10;0.10;;;;;;;9.66;67.67;102059.09;5134125;27;20027;-85
2023/03/20 01:36:14;;;;;;;0.22;0.22;;;;;;;9.63;67.66;102052.03;5126764;27;20043;-85
2023/03/20 01:38:43;;;;;;;0.10;0.10;;;;;;;9.62;67.65;102068.78;5133621;27;20046;-85
2023/03/20 01:41:15;;;;;;;0.28;0.28;;;;;;;9.60;67.79;102081.13;5133298;28;20206;-84
2023/03/20 01:43:44;;;;;;;1.75;1.02;;;;;;;9.55;67.39;102083.75;5144563;27;20024;-83
2023/03/20 01:52:01;;;;;;;0.10;0.10;;;;;;;9.52;67.81;102080.19;5080079;28;20398;-84
2023/03/20 01:54:32;;;;;;;0.20;0.20;;;;;;;9.55;67.86;102082.88;5067976;28;20036;-85
2023/03/20 01:59:44;;;;;;;0.10;0.10;;;;;;;9.51;68.11;102062.59;5127271;27;1238111;-84
2023/03/20 02:02:14;;;;;;;0.30;0.30;;;;;;;9.58;67.76;102066.13;5137310;28;20083;-85
2023/03/20 02:04:45;;;;;;;0.10;0.10;;;;;;;9.53;67.64;102058.16;5133366;27;20079;-85
2023/03/20 02:07:15;;;;;;;0.15;0.15;;;;;;;9.50;67.77;102052.88;5122088;28;20039;-85
2023/03/20 02:09:41;;;;;;;0.20;0.20;;;;;;;9.51;68.08;102054.66;5113397;28;20042;-85
2023/03/20 02:12:09;;;;;;;0.10;0.10;;;;;;;9.52;68.27;102065.22;5118234;28;20039;-85
2023/03/20 02:14:36;;;;;;;0.20;0.20;;;;;;;9.51;68.19;102054.66;5123393;28;20031;-85
2023/03/20 02:17:07;;;;;;;0.10;0.10;;;;;;;9.54;67.80;102059.94;5119351;28;20095;-86
2023/03/20 02:20:05;;;;;;;0.85;0.85;;;;;;;9.58;68.02;102050.25;5127717;28;20030;-84
2023/03/20 02:23:11;;;;;;;0.47;0.47;;;;;;;9.61;67.75;102052.88;5123961;28;20024;-86
2023/03/20 02:26:17;;;;;;;0.20;0.20;;;;;;;9.63;67.78;102029.97;5120771;28;20035;-84
2023/03/20 02:34:26;;;;;;;0.10;0.10;;;;;;;9.57;67.66;102022.00;5171887;27;20431;-84
2023/03/20 02:37:23;;;;;;;7.13;2.05;;;;;;;9.59;67.50;102021.13;5163104;27;20031;-85
2023/03/20 02:40:03;;;;;;;0.28;0.28;;;;;;;9.54;67.83;102004.38;5164914;27;20039;-85
2023/03/20 02:42:44;;;;;;;0.10;0.10;;;;;;;9.53;67.73;102003.50;5152644;27;20043;-86
2023/03/20 02:45:34;;;;;;;0.10;0.10;;;;;;;9.52;67.76;101987.59;5152163;27;20026;-86
2023/03/20 02:51:18;;;;;;;0.10;0.10;;;;;;;9.52;67.38;102006.13;5078882;28;20180;-86
2023/03/20 02:53:53;;;;;;;0.47;0.47;;;;;;;9.45;67.67;101992.00;5079598;28;20047;-86
2023/03/20 03:02:10;;;;;;;0.10;0.10;;;;;;;9.35;67.65;101996.38;5095675;27;20390;-86
2023/03/20 03:04:44;;;;;;;0.10;0.10;;;;;;;9.36;67.54;101991.97;5089832;28;20115;-87
2023/03/20 03:07:15;;;;;;;2.00;0.95;;;;;;;9.33;68.10;101991.97;5084198;28;20390;-85
2023/03/20 03:09:52;;;;;;;1.10;1.10;;;;;;;9.32;67.63;101985.78;5078967;28;20515;-87
2023/03/20 03:12:23;;;;;;;0.20;0.20;;;;;;;9.23;67.95;101986.66;5074344;28;20044;-86
2023/03/20 03:15:01;;;;;;;0.47;0.47;;;;;;;9.28;67.56;101986.66;5089933;28;20025;-86
2023/03/20 03:17:31;;;;;;;0.60;0.60;;;;;;;9.26;68.01;101988.41;5087800;28;20024;-86
2023/03/20 03:20:04;;;;;;;0.17;0.17;;;;;;;9.21;68.17;101995.47;5087321;28;20043;-87
2023/03/20 03:22:33;;;;;;;0.35;0.35;;;;;;;9.26;67.64;101988.41;5089527;28;20025;-87
2023/03/20 03:24:59;;;;;;;1.35;1.30;;;;;;;9.25;67.84;101984.00;5093490;28;20032;-87
2023/03/20 03:27:33;;;;;;;0.20;0.20;;;;;;;9.27;67.81;101984.91;5077734;28;20047;-86
2023/03/20 03:30:06;;;;;;;0.10;0.10;;;;;;;9.29;67.63;101977.84;5069069;28;20112;-84
2023/03/20 03:35:23;;;;;;;0.20;0.20;;;;;;;9.26;67.84;101972.56;5107838;27;1331011;-86
2023/03/20 03:40:56;;;;;;;0.85;0.82;;;;;;;9.37;67.59;101972.56;5126597;27;1282397;-84
2023/03/20 03:46:44;;;;;;;0.10;0.10;;;;;;;9.31;67.65;101965.50;5111242;27;1297384;-84
2023/03/20 03:49:15;;;;;;;0.10;0.10;;;;;;;9.30;67.63;101962.88;5104672;28;20028;-84
2023/03/20 03:51:46;;;;;;;0.15;0.15;;;;;;;9.26;67.64;101956.69;5102430;28;20550;-84
2023/03/20 03:54:21;;;;;;;0.40;0.40;;;;;;;9.25;67.92;101954.03;5106307;28;20070;-85
2023/03/20 03:56:50;;;;;;;0.50;0.50;;;;;;;9.23;67.73;101951.38;5106835;28;20036;-85
2023/03/20 03:59:26;;;;;;;0.15;0.15;;;;;;;9.29;67.78;101951.38;5107421;28;20390;-84
2023/03/20 04:01:55;;;;;;;0.55;0.55;;;;;;;9.27;67.95;101950.53;5098427;28;20058;-85
2023/03/20 04:04:24;;;;;;;1.95;0.90;;;;;;;9.25;67.89;101946.97;5098932;28;20028;-86
2023/03/20 04:06:50;;;;;;;0.20;0.20;;;;;;;9.27;67.68;101939.03;5098191;28;20039;-85
2023/03/20 04:09:16;;;;;;;0.10;0.10;;;;;;;9.18;68.05;101940.78;5099450;28;20032;-85
2023/03/20 04:11:44;;;;;;;0.10;0.10;;;;;;;9.21;67.65;101934.63;5093804;28;20499;-86
2023/03/20 04:14:10;;;;;;;0.68;0.68;;;;;;;9.15;67.93;101934.63;5095391;28;20112;-86
2023/03/20 04:16:36;;;;;;;0.50;0.50;;;;;;;9.16;68.02;101933.72;5089787;28;20028;-86
2023/03/20 04:19:02;;;;;;;0.65;0.52;;;;;;;9.13;68.15;101933.72;5095832;28;20039;-86
2023/03/20 04:21:34;;;;;;;0.10;0.10;;;;;;;9.20;68.06;101938.16;5092000;28;20036;-85
2023/03/20 04:24:00;;;;;;;0.40;0.40;;;;;;;9.12;68.54;101939.88;5086333;28;20052;-84
2023/03/20 04:26:27;;;;;;;0.40;0.40;;;;;;;9.11;68.08;101943.38;5091805;28;20040;-84
2023/03/20 04:28:53;;;;;;;0.10;0.10;;;;;;;9.04;68.43;101951.28;5091271;28;20024;-84
2023/03/20 04:31:19;;;;;;;0.10;0.10;;;;;;;9.09;68.14;101953.97;5092626;28;20024;-85
2023/03/20 04:33:46;;;;;;;0.17;0.17;;;;;;;9.14;68.29;101948.72;5090389;28;20071;-85
2023/03/20 04:36:12;;;;;;;0.20;0.20;;;;;;;9.08;68.25;101949.56;5096549;28;20077;-87
2023/03/20 04:38:41;;;;;;;0.10;0.10;;;;;;;9.12;68.11;101942.53;5094749;28;20033;-86
2023/03/20 04:41:07;;;;;;;0.77;0.75;;;;;;;9.10;68.64;101941.63;5095214;28;20071;-85
2023/03/20 04:43:33;;;;;;;0.17;0.17;;;;;;;9.09;68.66;101931.94;5094788;28;20082;-85
2023/03/20 04:46:00;;;;;;;0.98;0.98;;;;;;;9.12;68.69;101934.59;5093950;28;20028;-84
2023/03/20 04:48:26;;;;;;;0.10;0.10;;;;;;;9.13;68.37;101941.66;5090048;28;20047;-85
2023/03/20 04:50:53;;;;;;;0.20;0.20;;;;;;;9.14;68.59;101922.25;5095995;28;20423;-86
2023/03/20 04:53:19;;;;;;;0.10;0.10;;;;;;;9.14;68.49;101924.91;5090143;28;20025;-85
2023/03/20 04:55:46;;;;;;;0.93;0.82;;;;;;;9.14;68.90;101922.25;5089277;28;20021;-84
2023/03/20 04:58:13;;;;;;;0.32;0.32;;;;;;;9.08;68.45;101923.13;5073567;28;20423;-86
2023/03/20 05:00:39;;;;;;;0.15;0.15;;;;;;;9.05;68.87;101921.34;5076137;28;20049;-86
2023/03/20 05:03:05;;;;;;;29.95;1.50;;;;;;;9.01;68.64;101910.75;5076671;28;20146;-87
2023/03/20 05:05:32;;;;;;;0.93;0.93;;;;;;;9.10;69.28;101916.09;5082968;28;20068;-87
2023/03/20 05:07:59;;;;;;;0.10;0.10;;;;;;;9.07;68.99;101916.97;5082111;28;20017;-87
2023/03/20 05:10:25;;;;;;;0.40;0.40;;;;;;;9.14;69.26;101907.28;5072035;28;20662;-86
2023/03/20 05:12:51;;;;;;;1.33;1.23;;;;;;;9.09;69.42;101905.50;5070026;28;20045;-87
2023/03/20 05:15:17;;;;;;;1.38;1.33;;;;;;;9.12;68.93;101908.16;5075368;28;20028;-86
2023/03/20 05:17:43;;;;;;;0.20;0.20;;;;;;;9.18;68.72;101908.16;5074754;28;20024;-86
2023/03/20 05:20:10;;;;;;;0.43;0.43;;;;;;;9.17;69.07;101916.97;5078744;28;20046;-87
2023/03/20 05:22:36;;;;;;;0.10;0.10;;;;;;;9.15;69.23;101918.75;5085038;28;20043;-86
2023/03/20 05:25:02;;;;;;;1.13;1.02;;;;;;;9.13;69.28;101925.78;5081067;28;20028;-87
2023/03/20 05:27:29;;;;;;;0.20;0.20;;;;;;;9.15;68.83;101922.25;5079855;28;20048;-86
2023/03/20 05:29:55;;;;;;;0.30;0.30;;;;;;;9.13;69.43;101917.84;5088589;28;20047;-85
2023/03/20 05:32:21;;;;;;;0.30;0.30;;;;;;;9.04;69.55;101921.34;5078267;28;20105;-86
2023/03/20 05:34:47;;;;;;;0.85;0.85;;;;;;;9.18;68.83;101924.03;5081336;28;20040;-85
2023/03/20 05:37:13;;;;;;;1.00;1.00;;;;;;;9.14;68.53;101935.47;5079358;28;20045;-85
2023/03/20 05:39:39;;;;;;;0.10;0.10;;;;;;;9.16;68.77;101936.34;5076785;28;20064;-86
2023/03/20 05:42:05;;;;;;;0.20;0.20;;;;;;;9.19;68.64;101931.97;5076746;28;20370;-85
2023/03/20 05:44:31;;;;;;;0.20;0.20;;;;;;;9.16;69.17;101939.00;5073516;28;20040;-85
2023/03/20 05:46:57;;;;;;;0.25;0.25;;;;;;;9.21;68.61;101934.63;5074571;28;20032;-86
2023/03/20 05:49:24;;;;;;;0.10;0.10;;;;;;;9.23;68.36;101930.22;5075696;28;20032;-84
2023/03/20 05:51:50;;;;;;;0.28;0.28;;;;;;;9.28;68.56;101927.59;5075136;28;20021;-85
2023/03/20 05:54:16;;;;;;;0.15;0.15;;;;;;;9.26;68.64;101938.19;5075895;28;20099;-85
2023/03/20 05:56:42;;;;;;;0.47;0.47;;;;;;;9.27;68.94;101936.41;5079574;28;20401;-85
2023/03/20 05:59:08;;;;;;;0.10;0.10;;;;;;;9.23;68.65;101935.50;5074104;28;20056;-85
2023/03/20 06:01:34;;;;;;;1.48;1.45;;;;;;;9.20;68.87;101935.50;5078251;28;20032;-86
2023/03/20 06:04:03;;;;;;;0.10;0.10;;;;;;;9.27;69.16;101934.66;5071734;28;20029;-86
2023/03/20 06:06:29;;;;;;;0.85;0.85;;;;;;;9.31;68.79;101946.09;5073855;28;20058;-85
2023/03/20 06:08:55;;;;;;;0.10;0.10;;;;;;;9.31;68.64;101941.72;5075572;28;20064;-86
2023/03/20 06:11:21;;;;;;;0.10;0.10;;;;;;;9.34;68.69;101941.69;5075767;28;20040;-87
2023/03/20 06:13:49;;;;;;;0.10;0.10;;;;;;;9.30;68.82;101945.22;5070747;28;20047;-85
2023/03/20 06:16:15;;;;;;;0.35;0.35;;;;;;;9.34;68.99;101952.28;5074893;28;20016;-87
2023/03/20 06:18:41;;;;;;;0.10;0.10;;;;;;;9.38;68.85;101959.38;5074944;28;20027;-86
2023/03/20 06:21:08;;;;;;;0.50;0.50;;;;;;;9.33;69.00;101960.22;5071386;28;20039;-85
2023/03/20 06:23:35;;;;;;;0.20;0.20;;;;;;;9.38;68.59;101962.00;5070028;28;20098;-86
2023/03/20 06:26:01;;;;;;;0.30;0.30;;;;;;;9.43;68.84;101961.13;5074260;28;20029;-85
2023/03/20 06:28:27;;;;;;;0.10;0.10;;;;;;;9.42;68.72;101964.66;5074540;28;20313;-86
2023/03/20 06:30:53;;;;;;;0.10;0.10;;;;;;;9.45;68.46;101965.53;5075615;28;20371;-86
2023/03/20 06:33:19;;;;;;;0.45;0.45;;;;;;;9.47;68.57;101962.91;5075913;28;20020;-85
2023/03/20 06:35:47;;;;;;;0.20;0.20;;;;;;;9.49;68.44;101964.66;5072834;28;20028;-86
2023/03/20 06:38:13;;;;;;;0.10;0.10;;;;;;;9.53;68.26;101968.22;5073597;28;20025;-86
2023/03/20 06:40:40;;;;;;;0.20;0.20;;;;;;;9.54;68.69;101968.25;5076213;28;20067;-85
2023/03/20 06:43:06;;;;;;;0.55;0.55;;;;;;;9.48;68.54;101969.97;5078537;28;20033;-85
2023/03/20 06:45:33;;;;;;;0.45;0.45;;;;;;;9.49;68.69;101961.16;5075632;28;20056;-87
2023/03/20 06:47:59;;;;;;;0.10;0.10;;;;;;;9.57;68.26;101964.72;5070376;28;20057;-85
2023/03/20 06:50:26;;;;;;;0.10;0.10;;;;;;;9.56;68.52;101968.22;5071697;28;20520;-85
2023/03/20 06:52:52;;;;;;;0.20;0.20;;;;;;;9.54;68.43;101964.69;5075177;28;20035;-83
2023/03/20 06:55:18;;;;;;;1.08;1.08;;;;;;;9.51;68.39;101986.72;5071288;28;20439;-84
2023/03/20 06:57:44;;;;;;;1.08;1.08;;;;;;;9.54;68.27;101975.28;5073659;28;20029;-82
2023/03/20 07:00:11;;;;;;;0.10;0.10;;;;;;;9.47;68.27;101978.78;5081461;28;20032;-85
2023/03/20 07:02:37;;;;;;;0.57;0.57;;;;;;;9.58;68.41;101979.69;5085991;28;20036;-84
2023/03/20 07:05:03;;;;;;;0.52;0.52;;;;;;;9.57;68.13;101977.94;5082786;28;20114;-84
2023/03/20 07:07:29;;;;;;;1.85;1.75;;;;;;;9.58;67.93;101979.69;5085947;28;20119;-82
2023/03/20 07:09:56;;;;;;;0.00;0.00;;;;;;;9.62;67.81;101983.22;5078621;28;20052;-81
2023/03/20 07:12:27;;;;;;;0.10;0.10;;;;;;;9.63;68.00;101979.69;5078658;28;20058;-82
2023/03/20 07:14:53;;;;;;;0.10;0.10;;;;;;;9.65;68.05;101984.13;5078973;28;20043;-83
2023/03/20 07:17:19;;;;;;;0.17;0.17;;;;;;;9.66;67.95;101975.31;5081533;28;20039;-83
2023/03/20 07:19:45;;;;;;;0.10;0.10;;;;;;;9.74;67.72;101979.72;5071685;28;20029;-81
2023/03/20 07:22:22;;;;;;;0.35;0.35;;;;;;;9.83;67.87;101977.97;5069989;28;20096;-83
2023/03/20 07:24:48;;;;;;;0.10;0.10;;;;;;;9.79;67.60;101976.19;5076223;28;20039;-83
2023/03/20 07:27:15;;;;;;;0.00;0.00;;;;;;;9.84;67.67;101978.84;5081943;28;20107;-84
2023/03/20 07:29:41;;;;;;;0.10;0.10;;;;;;;9.82;67.18;101975.31;5078248;28;20029;-83
2023/03/20 07:32:07;;;;;;;0.52;0.52;;;;;;;9.94;67.15;101977.09;5080991;28;20308;-83
2023/03/20 07:34:33;;;;;;;0.13;0.13;;;;;;;9.92;66.89;101982.41;5081695;28;20024;-85
2023/03/20 07:37:00;;;;;;;0.30;0.30;;;;;;;9.85;66.50;101980.63;5077679;28;20044;-83
2023/03/20 07:39:26;;;;;;;0.20;0.20;;;;;;;9.82;66.12;101985.91;5081850;28;20028;-83
2023/03/20 07:41:52;;;;;;;0.10;0.10;;;;;;;9.96;66.76;101989.47;5082496;28;20036;-82
2023/03/20 07:44:18;;;;;;;0.17;0.17;;;;;;;9.99;66.54;101989.47;5078982;28;20477;-84
2023/03/20 07:46:46;;;;;;;0.20;0.20;;;;;;;9.86;66.48;101992.97;5077006;28;20099;-84
2023/03/20 07:49:13;;;;;;;2.25;1.20;;;;;;;9.87;66.31;101985.03;5079235;28;20024;-84
2023/03/20 07:51:39;;;;;;;0.73;0.65;;;;;;;9.97;66.44;101987.69;5078348;28;20029;-85
2023/03/20 07:54:06;;;;;;;0.10;0.10;;;;;;;10.01;66.20;101987.69;5082463;28;20026;-84
2023/03/20 07:56:32;;;;;;;0.08;0.08;;;;;;;10.03;66.40;101985.94;5079461;28;20052;-84
2023/03/20 07:58:58;;;;;;;0.10;0.10;;;;;;;9.99;65.94;101991.22;5080902;28;20043;-84
2023/03/20 08:01:24;;;;;;;0.20;0.20;;;;;;;9.95;66.25;101985.03;5076490;28;20067;-84
2023/03/20 08:03:50;;;;;;;0.20;0.20;;;;;;;9.95;66.15;101992.97;5079797;28;20055;-85
2023/03/20 08:06:17;;;;;;;0.10;0.10;;;;;;;10.01;66.69;101987.69;5084393;28;20032;-85
2023/03/20 08:08:43;;;;;;;0.35;0.35;;;;;;;10.04;66.58;101995.66;5091352;28;20032;-84
2023/03/20 08:11:10;;;;;;;0.10;0.10;;;;;;;10.07;67.10;101991.22;5082920;28;20481;-85
2023/03/20 08:13:37;;;;;;;0.20;0.20;;;;;;;9.96;67.39;102000.06;5067298;28;20021;-83
2023/03/20 08:16:03;;;;;;;0.10;0.10;;;;;;;9.98;67.62;101998.31;5076966;28;20054;-84
2023/03/20 08:18:29;;;;;;;0.20;0.20;;;;;;;9.91;68.00;101999.16;5082181;28;20074;-84
2023/03/20 08:20:56;;;;;;;0.63;0.63;;;;;;;9.94;68.43;101999.16;5080582;28;20032;-84
2023/03/20 08:23:22;;;;;;;1.20;0.75;;;;;;;9.86;68.37;101996.50;5081641;28;20059;-84
2023/03/20 08:25:49;;;;;;;0.30;0.30;;;;;;;9.81;68.36;102002.69;5084066;28;20066;-83
2023/03/20 08:28:15;;;;;;;0.20;0.20;;;;;;;9.84;68.64;101994.72;5082408;28;20033;-84
2023/03/20 08:30:41;;;;;;;0.10;0.10;;;;;;;9.87;69.30;101989.47;5079724;28;20092;-82
2023/03/20 08:33:07;;;;;;;3.08;2.88;;;;;;;9.85;69.05;101992.09;5081100;28;20032;-84
2023/03/20 08:35:34;;;;;;;0.17;0.17;;;;;;;9.88;69.33;101989.47;5083586;28;20053;-82
2023/03/20 08:38:00;;;;;;;0.10;0.10;;;;;;;9.80;69.90;101990.31;5080158;28;20032;-84
2023/03/20 08:40:27;;;;;;;0.43;0.43;;;;;;;9.82;69.26;101997.38;5086876;28;20092;-84
2023/03/20 08:42:53;;;;;;;0.20;0.20;;;;;;;9.79;69.35;101996.50;5082524;28;20501;-81
2023/03/20 08:45:19;;;;;;;0.13;0.13;;;;;;;9.77;69.64;101988.56;5082168;28;20405;-78
2023/03/20 08:47:47;;;;;;;0.10;0.10;;;;;;;9.87;69.95;101989.47;5076626;28;20452;-81
2023/03/20 08:50:14;;;;;;;0.10;0.10;;;;;;;9.95;69.92;101998.28;5072489;28;20039;-81
2023/03/20 08:52:42;;;;;;;0.10;0.10;;;;;;;9.96;69.61;101994.75;5070247;28;20119;-82
2023/03/20 08:55:10;;;;;;;0.10;0.10;;;;;;;9.97;70.01;101995.63;5071760;28;20020;-81
2023/03/20 08:57:37;;;;;;;0.10;0.10;;;;;;;10.08;69.76;101993.00;5083266;28;20039;-80
2023/03/20 09:00:05;;;;;;;0.20;0.20;;;;;;;10.10;69.74;101991.25;5082727;28;20031;-81
2023/03/20 09:02:32;;;;;;;1.73;1.63;;;;;;;10.08;69.57;101982.41;5082124;28;20032;-82
2023/03/20 09:04:58;;;;;;;0.10;0.10;;;;;;;10.06;69.58;101984.19;5073132;28;20534;-83
2023/03/20 09:07:24;;;;;;;0.10;0.10;;;;;;;10.12;69.16;101984.16;5076531;28;20067;-82
2023/03/20 09:09:50;;;;;;;0.68;0.68;;;;;;;10.11;69.66;101990.38;5065296;28;20213;-81
2023/03/20 09:12:16;;;;;;;0.40;0.40;;;;;;;10.19;69.34;101983.28;5059714;28;20039;-81
2023/03/20 09:14:43;;;;;;;0.10;0.10;;;;;;;10.16;69.16;101975.34;5073810;28;20029;-82
2023/03/20 09:17:09;;;;;;;0.10;0.10;;;;;;;10.17;69.16;101987.72;5073448;28;20016;-81
2023/03/20 09:19:38;;;;;;;0.10;0.10;;;;;;;10.14;68.95;101991.25;5084004;28;20029;-82
2023/03/20 09:22:07;;;;;;;0.88;0.88;;;;;;;10.19;69.05;101985.94;5090271;28;20080;-81
2023/03/20 09:24:33;;;;;;;0.22;0.22;;;;;;;10.20;69.07;101983.31;5091026;28;20492;-81
2023/03/20 09:26:59;;;;;;;17.08;2.50;;;;;;;10.24;69.33;101983.28;5092069;28;20032;-81
2023/03/20 09:29:26;;;;;;;0.10;0.10;;;;;;;10.36;69.77;101984.19;5087547;28;20134;-80
2023/03/20 09:31:53;;;;;;;0.20;0.20;;;;;;;10.35;69.58;101987.72;5086275;28;20037;-81
2023/03/20 09:34:20;;;;;;;0.10;0.10;;;;;;;10.35;69.17;101979.78;5089586;28;20056;-81
2023/03/20 09:36:46;;;;;;;0.30;0.30;;;;;;;10.44;68.94;101978.91;5089053;28;20021;-81
2023/03/20 09:39:12;;;;;;;0.10;0.10;;;;;;;10.47;68.69;101980.66;5082209;28;20029;-84
2023/03/20 09:41:39;;;;;;;7.72;3.40;;;;;;;10.53;69.63;101980.66;5087234;28;20440;-82
2023/03/20 09:49:59;;;;;;;0.10;0.10;;;;;;;10.82;69.30;101972.63;5086200;27;20100;-84
2023/03/20 09:52:38;;;;;;;0.20;0.20;;;;;;;10.75;68.82;102002.69;5071525;28;20033;-84
2023/03/20 09:55:13;;;;;;;0.30;0.30;;;;;;;10.66;68.98;101982.38;5064310;28;20490;-84
2023/03/20 09:57:42;;;;;;;0.10;0.10;;;;;;;10.67;69.34;101983.28;5071068;28;20496;-83
2023/03/20 10:00:16;;;;;;;2.25;0.85;;;;;;;10.75;69.92;101970.00;5070773;28;20028;-84
2023/03/20 10:03:05;;;;;;;0.10;0.10;;;;;;;10.72;69.49;101980.63;5069222;28;20092;-82
2023/03/20 10:05:41;;;;;;;0.20;0.20;;;;;;;10.67;69.29;101972.69;5057587;28;20132;-82
2023/03/20 10:08:15;;;;;;;2.97;2.78;;;;;;;10.73;69.83;101972.66;5069234;28;20139;-84
2023/03/20 10:11:05;;;;;;;1.30;0.93;;;;;;;10.84;69.91;101969.97;5070728;28;20378;-82
2023/03/20 10:13:47;;;;;;;4.13;1.30;;;;;;;10.91;69.69;101971.72;5070808;28;20064;-81
2023/03/20 10:19:05;;;;;;;0.10;0.10;;;;;;;10.91;69.47;101966.41;5095227;27;20393;-83
2023/03/20 10:21:42;;;;;;;0.28;0.28;;;;;;;10.95;69.52;101972.59;5092533;28;20114;-83
2023/03/20 10:24:18;;;;;;;0.08;0.08;;;;;;;10.82;68.94;101969.09;5089371;28;20032;-83
2023/03/20 10:26:48;;;;;;;4.03;0.85;;;;;;;10.93;69.42;101971.69;5090555;28;20024;-82
2023/03/20 10:32:26;;;;;;;0.20;0.20;;;;;;;10.99;69.04;101967.28;5109246;27;20570;-81
2023/03/20 10:35:29;;;;;;;0.10;0.10;;;;;;;11.10;68.93;101959.28;5078604;28;20032;-82
2023/03/20 10:38:24;;;;;;;0.20;0.20;;;;;;;11.14;68.44;101957.47;5081380;28;20084;-82
2023/03/20 10:40:51;;;;;;;0.30;0.30;;;;;;;11.05;68.24;101957.53;5089802;28;20036;-83
2023/03/20 10:43:23;;;;;;;0.30;0.30;;;;;;;11.10;68.10;101953.97;5083551;28;20021;-82
2023/03/20 10:46:03;;;;;;;2.58;2.40;;;;;;;11.07;67.70;101958.41;5087998;28;20043;-85
2023/03/20 10:48:37;;;;;;;0.73;0.73;;;;;;;11.26;68.04;101957.41;5079250;28;20452;-84
2023/03/20 10:51:05;;;;;;;0.70;0.70;;;;;;;11.25;67.61;101955.69;5072273;28;20025;-83
2023/03/20 10:56:13;;;;;;;0.10;0.10;;;;;;;11.28;67.47;101952.13;5101556;27;20395;-83
2023/03/20 10:58:43;;;;;;;0.10;0.10;;;;;;;11.25;67.34;101950.38;5091556;28;20084;-84
2023/03/20 11:01:09;;;;;;;0.93;0.85;;;;;;;11.25;67.33;101942.41;5082156;28;20032;-83
2023/03/20 11:03:38;;;;;;;0.63;0.63;;;;;;;11.28;66.92;101950.34;5088517;28;20036;-82
2023/03/20 11:06:25;;;;;;;0.17;0.17;;;;;;;11.36;66.96;101941.47;5086231;28;20636;-86
2023/03/20 11:08:52;;;;;;;0.10;0.10;;;;;;;11.41;67.15;101939.66;5091216;28;20389;-82
2023/03/20 11:11:43;;;;;;;4.25;1.08;;;;;;;11.51;67.16;101935.19;5090178;28;20024;-85
2023/03/20 11:14:21;;;;;;;0.10;0.10;;;;;;;11.49;66.98;101925.47;5090752;28;20028;-84
2023/03/20 11:16:50;;;;;;;0.43;0.43;;;;;;;11.39;66.77;101930.81;5088255;28;20024;-84
2023/03/20 11:19:23;;;;;;;0.30;0.30;;;;;;;11.30;66.53;101929.09;5091377;28;20062;-84
2023/03/20 11:21:54;;;;;;;0.20;0.20;;;;;;;11.29;67.41;101920.28;5091173;28;20119;-83
2023/03/20 11:27:13;;;;;;;0.82;0.82;;;;;;;11.40;68.14;101916.66;5072306;27;1871961;-84
2023/03/20 11:29:41;;;;;;;0.10;0.10;;;;;;;11.40;67.56;101911.34;5106711;28;20028;-83
2023/03/20 11:37:50;;;;;;;0.10;0.10;;;;;;;11.58;68.32;101910.38;5092229;27;20396;-82
2023/03/20 11:40:24;;;;;;;0.10;0.10;;;;;;;11.62;66.77;101907.66;5088265;28;20036;-82
2023/03/20 11:45:43;;;;;;;0.20;0.20;;;;;;;11.54;66.03;101904.19;5071215;28;20891;-82
2023/03/20 11:51:05;;;;;;;1.50;0.60;;;;;;;11.51;66.93;101908.66;5113943;27;1216252;-82
2023/03/20 11:56:20;;;;;;;0.20;0.20;;;;;;;11.65;66.01;101907.66;5077276;27;20398;-81
2023/03/20 12:01:51;;;;;;;0.90;0.82;;;;;;;11.63;66.09;101909.44;5049996;28;20467;-83
2023/03/20 12:07:00;;;;;;;1.00;1.00;;;;;;;11.63;66.87;101913.88;5113934;27;20391;-83
2023/03/20 12:09:33;;;;;;;;;;;;;;;11.67;66.72;101909.44;5105126;28;20032;-81
2023/03/20 12:12:33;;;;;;;3.40;2.08;;;;;;;11.55;66.93;101916.59;5094101;28;19977;-82
2023/03/20 12:20:42;;;;;;;0.10;0.10;;;;;;;11.13;68.49;101911.50;5070956;28;20414;-79
2023/03/20 12:26:09;;;;;;;0.38;0.38;;;;;;;11.13;68.88;101906.22;5105773;27;20627;-82
2023/03/20 12:28:46;;;;;;;0.30;0.30;;;;;;;11.13;68.34;101908.88;5080566;28;20153;-83
2023/03/20 12:31:29;;;;;;;0.17;0.17;;;;;;;11.27;68.13;101905.25;5075300;28;20547;-82
2023/03/20 12:34:04;;;;;;;0.55;0.55;;;;;;;11.08;68.84;101904.47;5086828;28;20048;-85
2023/03/20 12:36:36;;;;;;;1.75;1.33;;;;;;;11.02;68.68;101904.53;5068661;28;20493;-84
2023/03/20 12:39:05;;;;;;;0.30;0.30;;;;;;;11.05;69.06;101899.19;5079693;28;20047;-82
2023/03/20 12:41:48;;;;;;;0.10;0.10;;;;;;;11.18;68.79;101900.88;5094119;28;20507;-83
2023/03/20 12:50:20;;;;;;;0.10;0.10;;;;;;;11.21;68.71;101889.38;5104110;27;1207006;-82
2023/03/20 12:53:02;;;;;;;0.47;0.47;;;;;;;11.32;68.75;101883.09;5129793;28;20094;-84
2023/03/20 12:58:39;;;;;;;0.57;0.57;;;;;;;11.23;70.12;101883.16;5084201;27;1423552;-83
2023/03/20 13:04:23;;;;;;;0.40;0.40;;;;;;;11.23;70.02;101883.16;5117527;27;20385;-82
2023/03/20 13:15:41;;;;;;;4.83;0.70;;;;;;;11.20;72.09;101869.91;5102604;27;1180812;-82
2023/03/20 13:18:30;;;;;;;0.15;0.15;;;;;;;11.17;71.97;101856.69;5104142;28;20036;-81
2023/03/20 13:21:01;;;;;;;0.05;0.05;;;;;;;11.09;72.90;101863.78;5110186;28;20023;-84
2023/03/20 13:23:54;;;;;;;3.60;0.93;;;;;;;11.17;72.87;101857.53;5104689;28;20066;-83